createdAt,value
2017-11-08T00:01:56.720Z,6.10
2017-11-08T00:04:23.022Z,6.10
2017-11-08T00:06:50.096Z,6.20
2017-11-08T00:09:17.139Z,6.20
2017-11-08T00:11:43.458Z,6.20
2017-11-08T00:14:10.506Z,6.10
2017-11-08T00:16:36.806Z,6.10
2017-11-08T00:19:03.123Z,6.20
2017-11-08T00:21:32.366Z,6.20
2017-11-08T00:23:59.422Z,6.30
2017-11-08T00:26:26.708Z,6.20
2017-11-08T00:28:53.044Z,6.10
2017-11-08T00:31:19.346Z,6.20
2017-11-08T00:33:45.676Z,6.20
2017-11-08T00:36:12.714Z,6.20
2017-11-08T00:38:39.783Z,6.20
2017-11-08T00:41:06.116Z,6.10
2017-11-08T00:43:32.450Z,6.20
2017-11-08T00:45:58.737Z,6.20
2017-11-08T00:48:25.040Z,6.20
2017-11-08T00:50:52.227Z,6.20
2017-11-08T00:53:19.270Z,6.30
2017-11-08T00:55:45.610Z,6.20
2017-11-08T00:58:13.860Z,6.20
2017-11-08T01:00:44.228Z,6.20
2017-11-08T01:03:10.537Z,6.10
2017-11-08T01:05:37.630Z,6.30
2017-11-08T01:08:03.929Z,6.30
2017-11-08T01:10:30.993Z,6.30
2017-11-08T01:12:57.306Z,6.30
2017-11-08T01:15:23.662Z,6.40
2017-11-08T01:17:49.970Z,6.30
2017-11-08T01:20:16.281Z,6.30
2017-11-08T01:22:43.314Z,6.30
2017-11-08T01:25:09.646Z,6.20
2017-11-08T01:27:35.956Z,6.30
2017-11-08T01:30:02.269Z,6.20
2017-11-08T01:32:28.595Z,6.30
2017-11-08T01:34:54.898Z,6.30
2017-11-08T01:37:26.115Z,6.40
2017-11-08T01:39:52.456Z,6.50
2017-11-08T01:42:19.533Z,6.40
2017-11-08T01:44:47.683Z,6.40
2017-11-08T01:47:14.034Z,6.40
2017-11-08T01:49:40.342Z,6.40
2017-11-08T01:52:07.417Z,6.40
2017-11-08T01:54:33.745Z,6.40
2017-11-08T01:57:00.083Z,6.40
2017-11-08T01:59:26.413Z,6.60
2017-11-08T02:01:52.734Z,6.30
2017-11-08T02:04:19.087Z,6.40
2017-11-08T02:06:45.390Z,6.40
2017-11-08T02:09:11.726Z,6.30
2017-11-08T02:11:38.039Z,6.40
2017-11-08T02:14:04.372Z,6.40
2017-11-08T02:16:30.754Z,6.50
2017-11-08T02:19:00.156Z,6.40
2017-11-08T02:21:26.495Z,6.40
2017-11-08T02:23:52.846Z,6.50
2017-11-08T02:26:19.913Z,6.50
2017-11-08T02:28:46.256Z,6.50
2017-11-08T02:31:12.600Z,6.50
2017-11-08T02:33:38.935Z,6.50
2017-11-08T02:36:05.286Z,6.40
2017-11-08T02:38:31.631Z,6.40
2017-11-08T02:40:58.716Z,6.50
2017-11-08T02:43:25.046Z,6.40
2017-11-08T02:45:51.366Z,6.50
2017-11-08T02:48:17.715Z,6.60
2017-11-08T02:50:44.033Z,6.50
2017-11-08T02:53:10.360Z,6.50
2017-11-08T02:55:36.787Z,6.60
2017-11-08T02:58:03.825Z,6.70
2017-11-08T03:00:30.904Z,6.60
2017-11-08T03:02:57.221Z,6.50
2017-11-08T03:05:23.521Z,6.60
2017-11-08T03:07:49.850Z,6.60
2017-11-08T03:10:16.902Z,6.50
2017-11-08T03:12:43.952Z,6.60
2017-11-08T03:15:11.001Z,6.50
2017-11-08T03:17:38.050Z,6.60
2017-11-08T03:20:04.790Z,6.60
2017-11-08T03:22:31.183Z,6.60
2017-11-08T03:24:57.481Z,6.60
2017-11-08T03:27:23.770Z,6.50
2017-11-08T03:29:50.076Z,6.50
2017-11-08T03:32:16.367Z,6.50
2017-11-08T03:34:42.693Z,6.60
2017-11-08T03:37:09.023Z,6.60
2017-11-08T03:39:35.370Z,6.70
2017-11-08T03:42:01.741Z,6.60
2017-11-08T03:44:28.064Z,6.70
2017-11-08T03:46:54.366Z,6.70
2017-11-08T03:49:20.703Z,6.70
2017-11-08T03:51:47.034Z,6.70
2017-11-08T03:54:13.317Z,6.70
2017-11-08T03:56:40.360Z,6.80
2017-11-08T03:59:07.422Z,6.70
2017-11-08T04:01:33.746Z,6.60
2017-11-08T04:04:00.051Z,6.80
2017-11-08T04:06:26.374Z,6.80
2017-11-08T04:08:52.691Z,6.80
2017-11-08T04:11:19.002Z,6.90
2017-11-08T04:13:45.294Z,6.80
2017-11-08T04:16:12.364Z,6.80
2017-11-08T04:18:38.658Z,6.70
2017-11-08T04:21:04.981Z,6.80
2017-11-08T04:23:32.044Z,6.80
2017-11-08T04:25:59.109Z,6.90
2017-11-08T04:28:25.423Z,6.90
2017-11-08T04:30:51.761Z,6.90
2017-11-08T04:33:18.075Z,6.80
2017-11-08T04:35:44.392Z,6.90
2017-11-08T04:38:10.718Z,6.80
2017-11-08T04:40:37.006Z,6.90
2017-11-08T04:43:03.348Z,7.00
2017-11-08T04:45:29.729Z,6.90
2017-11-08T04:47:56.821Z,6.80
2017-11-08T04:50:23.145Z,6.80
2017-11-08T04:52:49.459Z,6.80
2017-11-08T04:55:15.792Z,6.90
2017-11-08T04:57:42.143Z,6.80
2017-11-08T05:00:08.469Z,6.70
2017-11-08T05:02:34.807Z,6.70
2017-11-08T05:05:01.109Z,6.80
2017-11-08T05:07:27.421Z,6.70
2017-11-08T05:09:54.485Z,6.80
2017-11-08T05:12:21.512Z,6.80
2017-11-08T05:14:47.816Z,6.70
2017-11-08T05:17:14.109Z,6.80
2017-11-08T05:19:40.412Z,6.80
2017-11-08T05:22:06.730Z,6.70
2017-11-08T05:24:34.397Z,6.80
2017-11-08T05:27:01.443Z,6.80
2017-11-08T05:29:28.493Z,6.90
2017-11-08T05:31:55.536Z,6.80
2017-11-08T05:34:22.574Z,6.70
2017-11-08T05:36:49.612Z,6.70
2017-11-08T05:39:15.951Z,6.70
2017-11-08T05:41:42.252Z,6.70
2017-11-08T05:44:08.569Z,6.70
2017-11-08T05:46:34.871Z,6.80
2017-11-08T05:49:01.906Z,6.80
2017-11-08T05:51:28.946Z,6.90
2017-11-08T05:53:56.024Z,6.90
2017-11-08T05:56:22.351Z,6.80
2017-11-08T05:58:48.646Z,6.90
2017-11-08T06:01:14.942Z,6.80
2017-11-08T06:03:41.238Z,6.80
2017-11-08T06:06:07.553Z,6.90
2017-11-08T06:08:34.580Z,7.00
2017-11-08T06:11:01.631Z,7.00
2017-11-08T06:13:28.731Z,7.00
2017-11-08T06:15:55.027Z,7.00
2017-11-08T06:18:22.091Z,7.10
2017-11-08T06:20:48.390Z,7.00
2017-11-08T06:23:14.745Z,7.20
2017-11-08T06:25:41.026Z,7.10
2017-11-08T06:28:08.112Z,7.10
2017-11-08T06:30:35.165Z,7.00
2017-11-08T06:33:02.262Z,7.00
2017-11-08T06:35:28.579Z,6.90
2017-11-08T06:37:55.198Z,7.00
2017-11-08T06:40:21.500Z,7.00
2017-11-08T06:42:48.566Z,6.90
2017-11-08T06:45:14.871Z,6.90
2017-11-08T06:47:41.998Z,7.00
2017-11-08T06:50:08.291Z,7.00
2017-11-08T06:52:38.487Z,7.00
2017-11-08T06:55:04.974Z,7.10
2017-11-08T06:57:31.299Z,7.00
2017-11-08T06:59:57.606Z,6.90
2017-11-08T07:02:23.912Z,7.00
2017-11-08T07:04:50.229Z,7.10
2017-11-08T07:07:17.336Z,7.20
2017-11-08T07:09:43.680Z,7.20
2017-11-08T07:12:09.978Z,7.40
2017-11-08T07:14:36.371Z,7.30
2017-11-08T07:17:04.353Z,7.20
2017-11-08T07:19:30.678Z,7.20
2017-11-08T07:21:57.007Z,7.30
2017-11-08T07:24:23.362Z,7.40
2017-11-08T07:26:49.685Z,7.40
2017-11-08T07:29:15.993Z,7.40
2017-11-08T07:31:42.333Z,7.40
2017-11-08T07:34:08.635Z,7.40
2017-11-08T07:36:35.697Z,7.30
2017-11-08T07:39:02.776Z,7.40
2017-11-08T07:41:29.111Z,7.30
2017-11-08T07:43:55.395Z,7.40
2017-11-08T07:46:22.466Z,7.40
2017-11-08T07:48:48.763Z,7.40
2017-11-08T07:51:16.536Z,7.60
2017-11-08T07:53:45.365Z,7.50
2017-11-08T07:56:11.698Z,7.50
2017-11-08T07:58:38.025Z,7.50
2017-11-08T08:01:04.337Z,7.80
2017-11-08T08:03:30.674Z,7.90
2017-11-08T08:05:56.980Z,7.80
2017-11-08T08:08:24.037Z,7.80
2017-11-08T08:10:50.372Z,7.80
2017-11-08T08:13:18.559Z,8.00
2017-11-08T08:15:44.877Z,7.90
2017-11-08T08:18:11.189Z,8.00
2017-11-08T08:20:38.315Z,8.10
2017-11-08T08:23:04.648Z,8.00
2017-11-08T08:25:30.957Z,8.10
2017-11-08T08:27:57.341Z,8.20
2017-11-08T08:30:23.660Z,8.20
2017-11-08T08:32:50.693Z,8.30
2017-11-08T08:35:17.002Z,8.30
2017-11-08T08:37:43.339Z,8.30
2017-11-08T08:40:09.655Z,8.50
2017-11-08T08:42:35.967Z,8.40
2017-11-08T08:45:02.438Z,8.30
2017-11-08T08:47:28.765Z,8.40
2017-11-08T08:49:55.112Z,8.40
2017-11-08T08:52:22.198Z,8.30
2017-11-08T08:54:48.529Z,8.30
2017-11-08T08:57:15.000Z,8.40
2017-11-08T08:59:41.326Z,8.40
2017-11-08T09:02:11.674Z,8.50
2017-11-08T09:04:38.763Z,8.40
2017-11-08T09:07:05.064Z,8.40
2017-11-08T09:09:32.147Z,8.50
2017-11-08T09:11:58.477Z,8.40
2017-11-08T09:14:24.781Z,8.60
2017-11-08T09:16:51.134Z,8.50
2017-11-08T09:19:17.504Z,8.60
2017-11-08T09:21:43.839Z,8.60
2017-11-08T09:24:13.050Z,8.80
2017-11-08T09:26:40.191Z,8.80
2017-11-08T09:29:06.531Z,8.80
2017-11-08T09:31:36.427Z,9.00
2017-11-08T09:34:02.777Z,9.00
2017-11-08T09:36:29.878Z,8.90
2017-11-08T09:38:56.234Z,8.80
2017-11-08T09:41:26.531Z,9.00
2017-11-08T09:43:52.986Z,8.90
2017-11-08T09:46:19.360Z,8.80
2017-11-08T09:48:46.671Z,8.80
2017-11-08T09:51:13.018Z,8.60
2017-11-08T09:53:39.385Z,8.80
2017-11-08T09:56:07.366Z,8.70
2017-11-08T09:58:33.705Z,8.70
2017-11-08T10:01:00.928Z,9.00
2017-11-08T10:03:27.292Z,9.00
2017-11-08T10:05:53.613Z,9.10
2017-11-08T10:08:19.944Z,9.20
2017-11-08T10:10:46.301Z,9.20
2017-11-08T10:13:12.635Z,9.10
2017-11-08T10:15:39.012Z,9.40
2017-11-08T10:18:06.072Z,9.40
2017-11-08T10:20:32.405Z,9.30
2017-11-08T10:23:00.669Z,9.50
2017-11-08T10:25:27.733Z,9.30
2017-11-08T10:27:54.930Z,9.30
2017-11-08T10:30:21.262Z,9.50
2017-11-08T10:32:47.589Z,9.50
2017-11-08T10:35:13.919Z,9.80
2017-11-08T10:37:40.275Z,9.80
2017-11-08T10:40:07.362Z,9.60
2017-11-08T10:42:33.693Z,9.60
2017-11-08T10:45:00.843Z,9.50
2017-11-08T10:47:27.170Z,9.50
2017-11-08T10:49:54.385Z,9.60
2017-11-08T10:52:20.749Z,9.70
2017-11-08T10:54:47.180Z,9.60
2017-11-08T10:57:13.557Z,9.60
2017-11-08T10:59:46.193Z,9.60
2017-11-08T11:02:12.552Z,9.50
2017-11-08T11:04:38.927Z,9.60
2017-11-08T11:07:05.291Z,9.50
2017-11-08T11:09:32.419Z,9.40
2017-11-08T11:11:58.824Z,9.30
2017-11-08T11:14:25.184Z,9.30
2017-11-08T11:16:51.545Z,9.40
2017-11-08T11:19:20.572Z,9.40
2017-11-08T11:21:47.830Z,9.30
2017-11-08T11:24:14.175Z,9.40
2017-11-08T11:26:41.411Z,9.40
2017-11-08T11:29:09.795Z,9.30
2017-11-08T11:31:36.156Z,9.40
2017-11-08T11:34:02.508Z,9.40
2017-11-08T11:36:28.861Z,9.40
2017-11-08T11:38:55.971Z,9.30
2017-11-08T11:41:22.319Z,9.30
2017-11-08T11:43:49.445Z,9.10
2017-11-08T11:46:15.816Z,9.10
2017-11-08T11:48:48.830Z,9.30
2017-11-08T11:51:15.181Z,9.20
2017-11-08T11:53:41.547Z,9.20
2017-11-08T11:56:08.650Z,9.10
2017-11-08T11:58:35.015Z,9.00
2017-11-08T12:01:01.352Z,9.30
2017-11-08T12:03:27.719Z,9.30
2017-11-08T12:05:54.111Z,9.20
2017-11-08T12:08:20.489Z,9.20
2017-11-08T12:10:46.871Z,9.30
2017-11-08T12:13:13.245Z,9.20
2017-11-08T12:15:40.348Z,9.40
2017-11-08T12:18:06.721Z,9.40
2017-11-08T12:20:33.823Z,9.40
2017-11-08T12:23:00.169Z,9.30
2017-11-08T12:25:26.522Z,9.20
2017-11-08T12:27:53.647Z,9.10
2017-11-08T12:30:20.019Z,9.10
2017-11-08T12:32:47.134Z,8.90
2017-11-08T12:35:14.399Z,8.90
2017-11-08T12:37:41.490Z,9.20
2017-11-08T12:40:10.774Z,9.10
2017-11-08T12:42:37.121Z,9.30
2017-11-08T12:45:17.338Z,9.20
2017-11-08T12:47:44.424Z,9.10
2017-11-08T12:50:10.790Z,9.00
2017-11-08T12:52:37.131Z,9.00
2017-11-08T12:55:03.515Z,9.00
2017-11-08T12:57:35.827Z,9.10
2017-11-08T13:00:02.224Z,9.20
2017-11-08T13:02:28.618Z,9.20
2017-11-08T13:04:55.020Z,9.20
2017-11-08T13:07:22.891Z,9.20
2017-11-08T13:09:49.246Z,9.20
2017-11-08T13:12:16.403Z,9.40
2017-11-08T13:14:50.571Z,9.40
2017-11-08T13:17:16.950Z,9.40
2017-11-08T13:19:44.052Z,9.60
2017-11-08T13:22:10.444Z,9.60
2017-11-08T13:24:36.816Z,9.70
2017-11-08T13:27:03.217Z,9.80
2017-11-08T13:29:30.283Z,9.60
2017-11-08T13:31:56.727Z,9.50
2017-11-08T13:34:24.600Z,9.50
2017-11-08T13:36:50.974Z,9.50
2017-11-08T13:39:18.097Z,9.60
2017-11-08T13:41:44.484Z,9.50
2017-11-08T13:44:10.858Z,9.40
2017-11-08T13:46:37.203Z,9.10
2017-11-08T13:49:03.560Z,9.00
2017-11-08T13:51:29.921Z,9.00
2017-11-08T13:53:56.280Z,9.00
2017-11-08T13:56:22.617Z,9.10
2017-11-08T13:58:48.980Z,9.10
2017-11-08T14:01:16.205Z,9.20
2017-11-08T14:03:42.583Z,9.10
2017-11-08T14:06:08.936Z,9.20
2017-11-08T14:08:35.280Z,9.10
2017-11-08T14:11:01.628Z,9.00
2017-11-08T14:13:29.456Z,8.80
2017-11-08T14:15:55.831Z,8.80
2017-11-08T14:18:22.168Z,9.00
2017-11-08T14:20:48.492Z,9.00
2017-11-08T14:23:14.801Z,9.00
2017-11-08T14:25:41.128Z,8.90
2017-11-08T14:28:07.542Z,8.90
2017-11-08T14:30:33.892Z,9.00
2017-11-08T14:33:00.231Z,8.90
2017-11-08T14:35:26.543Z,8.70
2017-11-08T14:37:52.847Z,8.70
2017-11-08T14:40:19.951Z,8.70
2017-11-08T14:42:47.090Z,8.60
2017-11-08T14:45:13.411Z,8.70
2017-11-08T14:47:39.738Z,8.70
2017-11-08T14:50:06.230Z,8.60
2017-11-08T14:52:32.580Z,8.50
2017-11-08T14:55:01.559Z,8.50
2017-11-08T14:57:28.598Z,8.60
2017-11-08T14:59:55.678Z,8.50
2017-11-08T15:02:21.993Z,8.40
2017-11-08T15:04:49.037Z,8.50
2017-11-08T15:07:15.341Z,8.50
2017-11-08T15:09:41.660Z,8.50
2017-11-08T15:12:09.004Z,8.40
2017-11-08T15:14:41.199Z,8.50
2017-11-08T15:17:07.524Z,8.50
2017-11-08T15:19:33.839Z,8.50
2017-11-08T15:22:00.149Z,8.40
2017-11-08T15:24:26.430Z,8.60
2017-11-08T15:26:52.763Z,8.50
2017-11-08T15:29:19.809Z,8.50
2017-11-08T15:31:46.862Z,8.50
2017-11-08T15:34:13.895Z,8.40
2017-11-08T15:36:40.938Z,8.40
2017-11-08T15:39:07.260Z,8.40
2017-11-08T15:41:33.558Z,8.60
2017-11-08T15:43:59.860Z,8.60
2017-11-08T15:46:31.110Z,8.60
2017-11-08T15:49:02.355Z,8.50
2017-11-08T15:51:28.680Z,8.40
2017-11-08T15:53:54.980Z,8.50
2017-11-08T15:56:21.290Z,8.50
2017-11-08T15:58:47.747Z,8.40
2017-11-08T16:01:20.850Z,8.40
2017-11-08T16:03:47.389Z,8.30
2017-11-08T16:06:14.725Z,8.20
2017-11-08T16:08:45.702Z,8.30
2017-11-08T16:11:12.008Z,8.30
2017-11-08T16:13:39.082Z,8.40
2017-11-08T16:16:05.434Z,8.30
2017-11-08T16:18:31.754Z,8.30
2017-11-08T16:20:58.058Z,8.30
2017-11-08T16:23:27.221Z,8.30
2017-11-08T16:25:53.562Z,8.40
2017-11-08T16:28:20.625Z,8.40
2017-11-08T16:30:47.673Z,8.40
2017-11-08T16:33:14.049Z,8.30
2017-11-08T16:35:40.345Z,8.50
2017-11-08T16:38:06.684Z,8.40
2017-11-08T16:40:32.973Z,8.50
2017-11-08T16:42:59.250Z,8.60
2017-11-08T16:45:25.555Z,8.50
2017-11-08T16:47:51.834Z,8.50
2017-11-08T16:50:18.150Z,8.50
2017-11-08T16:52:44.443Z,8.30
2017-11-08T16:55:10.742Z,8.40
2017-11-08T16:57:37.047Z,8.30
2017-11-08T17:00:03.389Z,8.40
2017-11-08T17:02:29.737Z,8.30
2017-11-08T17:04:56.089Z,8.20
2017-11-08T17:07:23.122Z,8.30
2017-11-08T17:09:50.241Z,8.30
2017-11-08T17:12:16.843Z,8.20
2017-11-08T17:14:43.173Z,8.10
2017-11-08T17:17:09.548Z,8.20
2017-11-08T17:19:35.841Z,8.30
2017-11-08T17:22:02.155Z,8.30
2017-11-08T17:24:28.458Z,8.30
2017-11-08T17:26:55.504Z,8.30
2017-11-08T17:29:22.567Z,8.40
2017-11-08T17:31:49.608Z,8.40
2017-11-08T17:34:16.648Z,8.50
2017-11-08T17:36:43.706Z,8.40
2017-11-08T17:39:10.765Z,8.40
2017-11-08T17:41:37.083Z,8.30
2017-11-08T17:44:04.111Z,8.40
2017-11-08T17:46:31.187Z,8.20
2017-11-08T17:48:57.488Z,8.20
2017-11-08T17:51:24.534Z,8.30
2017-11-08T17:53:51.577Z,8.20
2017-11-08T17:56:18.693Z,8.10
2017-11-08T17:58:45.009Z,8.10
2017-11-08T18:01:11.311Z,8.10
2017-11-08T18:03:37.661Z,8.00
2017-11-08T18:06:04.843Z,8.00
2017-11-08T18:08:31.453Z,8.10
2017-11-08T18:10:57.767Z,8.20
2017-11-08T18:13:24.087Z,8.10
2017-11-08T18:15:50.408Z,8.20
2017-11-08T18:18:17.460Z,8.10
2017-11-08T18:20:44.486Z,8.20
2017-11-08T18:23:10.790Z,8.20
2017-11-08T18:25:37.088Z,8.20
2017-11-08T18:28:03.403Z,8.10
2017-11-08T18:30:30.427Z,8.20
2017-11-08T18:32:56.746Z,8.10
2017-11-08T18:35:23.042Z,8.10
2017-11-08T18:37:49.382Z,8.10
2017-11-08T18:40:16.846Z,8.20
2017-11-08T18:42:43.586Z,8.30
2017-11-08T18:45:10.269Z,8.30
2017-11-08T18:47:36.595Z,8.30
2017-11-08T18:50:03.652Z,8.10
2017-11-08T18:52:31.161Z,8.00
2017-11-08T18:54:57.741Z,8.10
2017-11-08T18:57:24.065Z,8.20
2017-11-08T18:59:51.121Z,8.10
2017-11-08T19:02:18.159Z,8.10
2017-11-08T19:04:45.253Z,8.20
2017-11-08T19:07:11.578Z,8.10
2017-11-08T19:09:37.908Z,8.00
2017-11-08T19:12:04.263Z,8.10
2017-11-08T19:14:30.587Z,8.10
2017-11-08T19:16:56.865Z,8.20
2017-11-08T19:19:23.212Z,8.10
2017-11-08T19:21:49.587Z,8.00
2017-11-08T19:24:16.131Z,8.20
2017-11-08T19:26:42.594Z,8.20
2017-11-08T19:29:08.944Z,8.10
2017-11-08T19:31:35.344Z,8.00
2017-11-08T19:34:01.673Z,7.90
2017-11-08T19:36:28.748Z,7.90
2017-11-08T19:38:55.900Z,8.00
2017-11-08T19:41:22.557Z,7.90
2017-11-08T19:43:48.851Z,8.00
2017-11-08T19:46:15.895Z,8.00
2017-11-08T19:48:42.946Z,7.90
2017-11-08T19:51:09.359Z,7.90
2017-11-08T19:53:36.532Z,7.90
2017-11-08T19:56:02.859Z,7.80
2017-11-08T19:58:29.975Z,7.80
2017-11-08T20:00:57.074Z,7.90
2017-11-08T20:03:23.445Z,7.80
2017-11-08T20:05:50.134Z,7.80
2017-11-08T20:08:16.486Z,7.80
2017-11-08T20:10:42.933Z,7.90
2017-11-08T20:13:09.253Z,7.90
2017-11-08T20:15:35.617Z,8.00
2017-11-08T20:18:01.967Z,7.90
2017-11-08T20:20:28.334Z,7.90
2017-11-08T20:22:54.700Z,7.90
2017-11-08T20:25:21.005Z,7.80
2017-11-08T20:27:47.327Z,7.80
2017-11-08T20:30:13.648Z,7.90
2017-11-08T20:32:39.977Z,7.90
2017-11-08T20:35:06.481Z,7.90
2017-11-08T20:37:32.887Z,8.00
2017-11-08T20:39:59.240Z,7.90
2017-11-08T20:42:25.569Z,7.80
2017-11-08T20:44:51.858Z,7.90
2017-11-08T20:47:18.159Z,8.00
2017-11-08T20:49:44.457Z,7.90
2017-11-08T20:52:11.642Z,7.80
2017-11-08T20:54:38.001Z,7.70
2017-11-08T20:57:04.376Z,7.80
2017-11-08T20:59:31.437Z,7.80
2017-11-08T21:01:57.748Z,7.80
2017-11-08T21:04:24.071Z,7.80
2017-11-08T21:06:51.146Z,7.70
2017-11-08T21:09:17.501Z,7.70
2017-11-08T21:11:43.793Z,7.60
2017-11-08T21:14:10.863Z,7.70
2017-11-08T21:16:37.206Z,7.60
2017-11-08T21:19:03.537Z,7.70
2017-11-08T21:21:29.843Z,7.70
2017-11-08T21:23:56.882Z,7.70
2017-11-08T21:26:23.201Z,7.70
2017-11-08T21:28:50.259Z,7.60
2017-11-08T21:31:17.420Z,7.50
2017-11-08T21:33:44.468Z,7.70
2017-11-08T21:36:11.518Z,7.70
2017-11-08T21:38:37.844Z,7.70
2017-11-08T21:41:04.891Z,7.70
2017-11-08T21:43:31.924Z,7.60
2017-11-08T21:45:58.226Z,7.50
2017-11-08T21:48:24.539Z,7.50
2017-11-08T21:50:50.832Z,7.50
2017-11-08T21:53:17.157Z,7.50
2017-11-08T21:55:44.193Z,7.60
2017-11-08T21:58:10.638Z,7.50
2017-11-08T22:00:37.678Z,7.60
2017-11-08T22:03:03.994Z,7.60
2017-11-08T22:05:31.083Z,7.60
2017-11-08T22:07:57.388Z,7.60
2017-11-08T22:10:23.690Z,7.60
2017-11-08T22:12:50.051Z,7.60
2017-11-08T22:15:17.091Z,7.60
2017-11-08T22:17:44.105Z,7.50
2017-11-08T22:20:10.411Z,7.50
2017-11-08T22:22:36.702Z,7.50
2017-11-08T22:25:03.771Z,7.60
2017-11-08T22:27:30.089Z,7.60
2017-11-08T22:29:57.134Z,7.60
2017-11-08T22:32:23.453Z,7.60
2017-11-08T22:34:50.540Z,7.60
2017-11-08T22:37:16.874Z,7.60
2017-11-08T22:39:43.193Z,7.60
2017-11-08T22:42:09.503Z,7.60
2017-11-08T22:44:35.908Z,7.70
2017-11-08T22:47:02.470Z,7.80
2017-11-08T22:49:28.891Z,7.70
2017-11-08T22:51:55.981Z,7.70
2017-11-08T22:54:22.298Z,7.60
2017-11-08T22:56:48.689Z,7.80
2017-11-08T22:59:15.806Z,7.70
2017-11-08T23:01:42.139Z,7.60
2017-11-08T23:04:08.520Z,7.60
2017-11-08T23:06:34.852Z,7.60
2017-11-08T23:09:01.173Z,7.50
2017-11-08T23:11:27.540Z,7.60
2017-11-08T23:13:53.864Z,7.60
2017-11-08T23:16:21.112Z,7.60
2017-11-08T23:18:47.412Z,7.70
2017-11-08T23:21:14.463Z,7.50
2017-11-08T23:23:40.769Z,7.40
2017-11-08T23:26:07.108Z,7.50
2017-11-08T23:28:33.435Z,7.40
2017-11-08T23:31:00.528Z,7.40
2017-11-08T23:33:26.818Z,7.40
2017-11-08T23:35:53.170Z,7.30
2017-11-08T23:38:19.482Z,7.30
2017-11-08T23:40:46.560Z,7.30
2017-11-08T23:43:12.855Z,7.20
2017-11-08T23:45:39.151Z,7.30
2017-11-08T23:48:05.476Z,7.30
2017-11-08T23:50:31.794Z,7.30
2017-11-08T23:52:58.093Z,7.30
2017-11-08T23:55:26.080Z,7.30
2017-11-08T23:57:52.382Z,7.20
